sensor_id;sensor_type;location;lat;lon;timestamp;P1;durP1;ratioP1;P2;durP2;ratioP2
75450;SDS011;64029;48.244;9.188;2023-05-10T00:01:27;4.03;;;2.00;;
75450;SDS011;64029;48.244;9.188;2023-05-10T00:03:54;3.27;;;1.70;;
75450;SDS011;64029;48.244;9.188;2023-05-10T00:06:21;4.40;;;1.70;;
75450;SDS011;64029;48.244;9.188;2023-05-10T00:08:49;5.37;;;1.67;;
75450;SDS011;64029;48.244;9.188;2023-05-10T00:11:15;1.67;;;1.57;;
75450;SDS011;64029;48.244;9.188;2023-05-10T00:13:42;2.33;;;1.70;;
75450;SDS011;64029;48.244;9.188;2023-05-10T00:16:09;2.50;;;1.50;;
75450;SDS011;64029;48.244;9.188;2023-05-10T00:18:38;1.70;;;1.00;;
75450;SDS011;64029;48.244;9.188;2023-05-10T00:21:04;1.97;;;1.30;;
75450;SDS011;64029;48.244;9.188;2023-05-10T00:23:31;1.43;;;1.00;;
75450;SDS011;64029;48.244;9.188;2023-05-10T00:25:59;1.20;;;1.00;;
75450;SDS011;64029;48.244;9.188;2023-05-10T00:28:27;1.13;;;0.80;;
75450;SDS011;64029;48.244;9.188;2023-05-10T00:30:54;2.10;;;1.20;;
75450;SDS011;64029;48.244;9.188;2023-05-10T00:33:20;0.80;;;0.80;;
75450;SDS011;64029;48.244;9.188;2023-05-10T00:35:47;1.00;;;0.90;;
75450;SDS011;64029;48.244;9.188;2023-05-10T00:38:14;0.80;;;0.70;;
75450;SDS011;64029;48.244;9.188;2023-05-10T00:40:41;0.80;;;0.60;;
75450;SDS011;64029;48.244;9.188;2023-05-10T00:43:10;0.67;;;0.57;;
75450;SDS011;64029;48.244;9.188;2023-05-10T00:45:37;1.20;;;0.60;;
75450;SDS011;64029;48.244;9.188;2023-05-10T00:48:05;2.63;;;0.60;;
75450;SDS011;64029;48.244;9.188;2023-05-10T00:50:32;2.97;;;0.70;;
75450;SDS011;64029;48.244;9.188;2023-05-10T00:52:59;0.70;;;0.60;;
75450;SDS011;64029;48.244;9.188;2023-05-10T00:55:27;0.70;;;0.60;;
75450;SDS011;64029;48.244;9.188;2023-05-10T00:57:55;0.70;;;0.70;;
75450;SDS011;64029;48.244;9.188;2023-05-10T01:00:23;0.80;;;0.70;;
75450;SDS011;64029;48.244;9.188;2023-05-10T01:02:50;0.90;;;0.80;;
75450;SDS011;64029;48.244;9.188;2023-05-10T01:05:18;0.77;;;0.63;;
75450;SDS011;64029;48.244;9.188;2023-05-10T01:07:45;0.73;;;0.70;;
75450;SDS011;64029;48.244;9.188;2023-05-10T01:10:13;1.67;;;0.70;;
75450;SDS011;64029;48.244;9.188;2023-05-10T01:12:40;0.80;;;0.60;;
75450;SDS011;64029;48.244;9.188;2023-05-10T01:15:10;0.80;;;0.60;;
75450;SDS011;64029;48.244;9.188;2023-05-10T01:17:40;1.07;;;0.60;;
75450;SDS011;64029;48.244;9.188;2023-05-10T01:20:10;0.70;;;0.60;;
75450;SDS011;64029;48.244;9.188;2023-05-10T01:22:46;4.30;;;0.80;;
75450;SDS011;64029;48.244;9.188;2023-05-10T01:25:37;1.30;;;0.80;;
75450;SDS011;64029;48.244;9.188;2023-05-10T01:31:22;1.10;;;0.80;;
75450;SDS011;64029;48.244;9.188;2023-05-10T01:34:03;1.30;;;0.53;;
75450;SDS011;64029;48.244;9.188;2023-05-10T01:36:35;0.73;;;0.67;;
75450;SDS011;64029;48.244;9.188;2023-05-10T01:39:11;0.80;;;0.70;;
75450;SDS011;64029;48.244;9.188;2023-05-10T01:41:45;1.10;;;0.80;;
75450;SDS011;64029;48.244;9.188;2023-05-10T01:44:20;0.80;;;0.70;;
75450;SDS011;64029;48.244;9.188;2023-05-10T01:46:57;1.37;;;0.60;;
75450;SDS011;64029;48.244;9.188;2023-05-10T01:49:31;1.67;;;0.60;;
75450;SDS011;64029;48.244;9.188;2023-05-10T01:52:03;1.40;;;0.80;;
75450;SDS011;64029;48.244;9.188;2023-05-10T01:54:34;0.90;;;0.87;;
75450;SDS011;64029;48.244;9.188;2023-05-10T01:57:05;1.67;;;0.73;;
75450;SDS011;64029;48.244;9.188;2023-05-10T01:59:35;1.00;;;0.70;;
75450;SDS011;64029;48.244;9.188;2023-05-10T02:02:05;1.00;;;0.87;;
75450;SDS011;64029;48.244;9.188;2023-05-10T02:04:38;0.80;;;0.70;;
75450;SDS011;64029;48.244;9.188;2023-05-10T02:07:06;1.30;;;0.60;;
75450;SDS011;64029;48.244;9.188;2023-05-10T02:09:34;1.00;;;0.67;;
75450;SDS011;64029;48.244;9.188;2023-05-10T02:12:03;1.00;;;0.73;;
75450;SDS011;64029;48.244;9.188;2023-05-10T02:14:33;1.40;;;0.77;;
75450;SDS011;64029;48.244;9.188;2023-05-10T02:17:02;1.80;;;1.70;;
75450;SDS011;64029;48.244;9.188;2023-05-10T02:19:32;1.63;;;1.53;;
75450;SDS011;64029;48.244;9.188;2023-05-10T02:22:01;1.63;;;1.33;;
75450;SDS011;64029;48.244;9.188;2023-05-10T02:24:29;1.20;;;1.10;;
75450;SDS011;64029;48.244;9.188;2023-05-10T02:26:57;1.63;;;1.10;;
75450;SDS011;64029;48.244;9.188;2023-05-10T02:29:26;1.13;;;1.00;;
75450;SDS011;64029;48.244;9.188;2023-05-10T02:31:54;0.90;;;0.70;;
75450;SDS011;64029;48.244;9.188;2023-05-10T02:34:22;1.20;;;0.90;;
75450;SDS011;64029;48.244;9.188;2023-05-10T02:36:51;0.80;;;0.67;;
75450;SDS011;64029;48.244;9.188;2023-05-10T02:39:20;0.83;;;0.70;;
75450;SDS011;64029;48.244;9.188;2023-05-10T02:41:48;0.90;;;0.60;;
75450;SDS011;64029;48.244;9.188;2023-05-10T02:44:17;2.33;;;1.00;;
75450;SDS011;64029;48.244;9.188;2023-05-10T02:46:45;0.80;;;0.80;;
75450;SDS011;64029;48.244;9.188;2023-05-10T02:49:13;0.90;;;0.80;;
75450;SDS011;64029;48.244;9.188;2023-05-10T02:51:40;0.90;;;0.80;;
75450;SDS011;64029;48.244;9.188;2023-05-10T02:54:10;3.40;;;0.77;;
75450;SDS011;64029;48.244;9.188;2023-05-10T02:56:42;0.73;;;0.70;;
75450;SDS011;64029;48.244;9.188;2023-05-10T02:59:16;1.00;;;0.80;;
75450;SDS011;64029;48.244;9.188;2023-05-10T03:01:43;0.80;;;0.80;;
75450;SDS011;64029;48.244;9.188;2023-05-10T03:04:10;1.00;;;0.80;;
75450;SDS011;64029;48.244;9.188;2023-05-10T03:06:37;1.00;;;0.90;;
75450;SDS011;64029;48.244;9.188;2023-05-10T03:09:04;1.70;;;0.70;;
75450;SDS011;64029;48.244;9.188;2023-05-10T03:11:37;2.13;;;1.10;;
75450;SDS011;64029;48.244;9.188;2023-05-10T03:14:16;1.00;;;0.80;;
75450;SDS011;64029;48.244;9.188;2023-05-10T03:16:52;1.73;;;0.70;;
75450;SDS011;64029;48.244;9.188;2023-05-10T03:19:24;1.20;;;0.80;;
75450;SDS011;64029;48.244;9.188;2023-05-10T03:21:55;2.23;;;1.00;;
75450;SDS011;64029;48.244;9.188;2023-05-10T03:24:29;0.80;;;0.80;;
75450;SDS011;64029;48.244;9.188;2023-05-10T03:26:59;1.20;;;1.00;;
75450;SDS011;64029;48.244;9.188;2023-05-10T03:29:27;1.20;;;0.70;;
75450;SDS011;64029;48.244;9.188;2023-05-10T03:31:55;2.30;;;0.80;;
75450;SDS011;64029;48.244;9.188;2023-05-10T03:34:24;1.63;;;0.80;;
75450;SDS011;64029;48.244;9.188;2023-05-10T03:36:51;1.47;;;1.00;;
75450;SDS011;64029;48.244;9.188;2023-05-10T03:39:18;4.53;;;0.87;;
75450;SDS011;64029;48.244;9.188;2023-05-10T03:41:46;2.23;;;0.87;;
75450;SDS011;64029;48.244;9.188;2023-05-10T03:44:14;1.43;;;0.70;;
75450;SDS011;64029;48.244;9.188;2023-05-10T03:46:41;2.30;;;0.70;;
75450;SDS011;64029;48.244;9.188;2023-05-10T03:49:08;1.90;;;0.90;;
75450;SDS011;64029;48.244;9.188;2023-05-10T03:51:35;1.80;;;1.00;;
75450;SDS011;64029;48.244;9.188;2023-05-10T03:54:01;1.10;;;0.70;;
75450;SDS011;64029;48.244;9.188;2023-05-10T03:56:28;1.40;;;0.77;;
75450;SDS011;64029;48.244;9.188;2023-05-10T03:58:55;0.80;;;0.70;;
75450;SDS011;64029;48.244;9.188;2023-05-10T04:01:23;3.03;;;0.90;;
75450;SDS011;64029;48.244;9.188;2023-05-10T04:03:50;4.63;;;0.90;;
75450;SDS011;64029;48.244;9.188;2023-05-10T04:06:17;1.53;;;0.90;;
75450;SDS011;64029;48.244;9.188;2023-05-10T04:08:44;1.97;;;1.00;;
75450;SDS011;64029;48.244;9.188;2023-05-10T04:11:11;2.50;;;0.90;;
75450;SDS011;64029;48.244;9.188;2023-05-10T04:13:39;1.10;;;1.00;;
75450;SDS011;64029;48.244;9.188;2023-05-10T04:16:06;1.93;;;0.80;;
75450;SDS011;64029;48.244;9.188;2023-05-10T04:18:34;2.03;;;1.10;;
75450;SDS011;64029;48.244;9.188;2023-05-10T04:21:01;2.03;;;1.00;;
75450;SDS011;64029;48.244;9.188;2023-05-10T04:23:28;1.10;;;0.93;;
75450;SDS011;64029;48.244;9.188;2023-05-10T04:25:58;4.50;;;1.00;;
75450;SDS011;64029;48.244;9.188;2023-05-10T04:28:26;1.63;;;1.20;;
75450;SDS011;64029;48.244;9.188;2023-05-10T04:30:53;1.40;;;1.03;;
75450;SDS011;64029;48.244;9.188;2023-05-10T04:33:26;1.27;;;0.90;;
75450;SDS011;64029;48.244;9.188;2023-05-10T04:35:54;3.03;;;1.00;;
75450;SDS011;64029;48.244;9.188;2023-05-10T04:38:21;1.20;;;1.10;;
75450;SDS011;64029;48.244;9.188;2023-05-10T04:40:48;1.10;;;1.00;;
75450;SDS011;64029;48.244;9.188;2023-05-10T04:43:15;4.70;;;1.10;;
75450;SDS011;64029;48.244;9.188;2023-05-10T04:45:41;1.10;;;1.00;;
75450;SDS011;64029;48.244;9.188;2023-05-10T04:48:08;2.30;;;1.10;;
75450;SDS011;64029;48.244;9.188;2023-05-10T04:50:35;2.10;;;1.20;;
75450;SDS011;64029;48.244;9.188;2023-05-10T04:53:03;3.63;;;1.10;;
75450;SDS011;64029;48.244;9.188;2023-05-10T04:55:30;3.77;;;1.10;;
75450;SDS011;64029;48.244;9.188;2023-05-10T04:57:57;1.83;;;0.90;;
75450;SDS011;64029;48.244;9.188;2023-05-10T05:00:24;1.23;;;1.00;;
75450;SDS011;64029;48.244;9.188;2023-05-10T05:02:50;4.30;;;1.17;;
75450;SDS011;64029;48.244;9.188;2023-05-10T05:05:17;1.37;;;1.00;;
75450;SDS011;64029;48.244;9.188;2023-05-10T05:07:44;2.00;;;1.00;;
75450;SDS011;64029;48.244;9.188;2023-05-10T05:10:12;1.47;;;1.00;;
75450;SDS011;64029;48.244;9.188;2023-05-10T05:12:40;1.30;;;1.10;;
75450;SDS011;64029;48.244;9.188;2023-05-10T05:15:07;1.57;;;1.40;;
75450;SDS011;64029;48.244;9.188;2023-05-10T05:17:34;1.20;;;1.10;;
75450;SDS011;64029;48.244;9.188;2023-05-10T05:20:01;1.10;;;1.00;;
75450;SDS011;64029;48.244;9.188;2023-05-10T05:22:28;3.20;;;1.20;;
75450;SDS011;64029;48.244;9.188;2023-05-10T05:24:55;4.97;;;1.23;;
75450;SDS011;64029;48.244;9.188;2023-05-10T05:27:24;1.60;;;1.40;;
75450;SDS011;64029;48.244;9.188;2023-05-10T05:29:52;2.40;;;1.00;;
75450;SDS011;64029;48.244;9.188;2023-05-10T05:32:19;2.00;;;1.00;;
75450;SDS011;64029;48.244;9.188;2023-05-10T05:34:47;2.03;;;1.07;;
75450;SDS011;64029;48.244;9.188;2023-05-10T05:37:14;2.17;;;1.13;;
75450;SDS011;64029;48.244;9.188;2023-05-10T05:39:41;3.30;;;1.00;;
75450;SDS011;64029;48.244;9.188;2023-05-10T05:42:09;2.13;;;1.20;;
75450;SDS011;64029;48.244;9.188;2023-05-10T05:44:37;1.53;;;1.00;;
75450;SDS011;64029;48.244;9.188;2023-05-10T05:47:04;1.20;;;1.00;;
75450;SDS011;64029;48.244;9.188;2023-05-10T05:49:32;1.30;;;1.20;;
75450;SDS011;64029;48.244;9.188;2023-05-10T05:51:59;1.10;;;1.00;;
75450;SDS011;64029;48.244;9.188;2023-05-10T05:54:26;2.80;;;1.20;;
75450;SDS011;64029;48.244;9.188;2023-05-10T05:56:53;1.67;;;1.37;;
75450;SDS011;64029;48.244;9.188;2023-05-10T05:59:21;2.90;;;1.17;;
75450;SDS011;64029;48.244;9.188;2023-05-10T06:01:49;2.80;;;1.07;;
75450;SDS011;64029;48.244;9.188;2023-05-10T06:04:17;2.87;;;1.30;;
75450;SDS011;64029;48.244;9.188;2023-05-10T06:06:44;1.10;;;1.00;;
75450;SDS011;64029;48.244;9.188;2023-05-10T06:09:11;1.00;;;0.80;;
75450;SDS011;64029;48.244;9.188;2023-05-10T06:11:38;1.13;;;1.00;;
75450;SDS011;64029;48.244;9.188;2023-05-10T06:14:05;1.67;;;0.90;;
75450;SDS011;64029;48.244;9.188;2023-05-10T06:16:33;1.93;;;1.17;;
75450;SDS011;64029;48.244;9.188;2023-05-10T06:19:01;3.57;;;1.17;;
75450;SDS011;64029;48.244;9.188;2023-05-10T06:21:28;1.87;;;1.00;;
75450;SDS011;64029;48.244;9.188;2023-05-10T06:23:55;1.03;;;0.93;;
75450;SDS011;64029;48.244;9.188;2023-05-10T06:26:22;4.97;;;1.20;;
75450;SDS011;64029;48.244;9.188;2023-05-10T06:28:49;2.00;;;1.00;;
75450;SDS011;64029;48.244;9.188;2023-05-10T06:31:15;1.43;;;1.20;;
75450;SDS011;64029;48.244;9.188;2023-05-10T06:33:42;2.70;;;1.13;;
75450;SDS011;64029;48.244;9.188;2023-05-10T06:36:11;3.97;;;1.27;;
75450;SDS011;64029;48.244;9.188;2023-05-10T06:38:38;1.10;;;1.00;;
75450;SDS011;64029;48.244;9.188;2023-05-10T06:41:05;2.03;;;1.83;;
75450;SDS011;64029;48.244;9.188;2023-05-10T06:43:31;3.83;;;1.87;;
75450;SDS011;64029;48.244;9.188;2023-05-10T06:45:58;3.73;;;1.43;;
75450;SDS011;64029;48.244;9.188;2023-05-10T06:48:25;3.30;;;2.10;;
75450;SDS011;64029;48.244;9.188;2023-05-10T06:50:52;4.33;;;2.43;;
75450;SDS011;64029;48.244;9.188;2023-05-10T06:53:20;2.33;;;2.10;;
75450;SDS011;64029;48.244;9.188;2023-05-10T06:55:48;3.50;;;2.60;;
75450;SDS011;64029;48.244;9.188;2023-05-10T06:58:15;2.83;;;2.40;;
75450;SDS011;64029;48.244;9.188;2023-05-10T07:00:42;4.87;;;1.90;;
75450;SDS011;64029;48.244;9.188;2023-05-10T07:03:10;3.20;;;1.83;;
75450;SDS011;64029;48.244;9.188;2023-05-10T07:05:37;1.63;;;1.10;;
75450;SDS011;64029;48.244;9.188;2023-05-10T07:08:04;2.17;;;1.90;;
75450;SDS011;64029;48.244;9.188;2023-05-10T07:10:32;1.80;;;1.70;;
75450;SDS011;64029;48.244;9.188;2023-05-10T07:12:59;2.90;;;1.80;;
75450;SDS011;64029;48.244;9.188;2023-05-10T07:15:26;3.53;;;1.80;;
75450;SDS011;64029;48.244;9.188;2023-05-10T07:17:53;2.57;;;1.97;;
75450;SDS011;64029;48.244;9.188;2023-05-10T07:20:20;2.63;;;1.60;;
75450;SDS011;64029;48.244;9.188;2023-05-10T07:22:47;1.70;;;1.60;;
75450;SDS011;64029;48.244;9.188;2023-05-10T07:25:14;1.33;;;1.23;;
75450;SDS011;64029;48.244;9.188;2023-05-10T07:27:42;2.83;;;1.00;;
75450;SDS011;64029;48.244;9.188;2023-05-10T07:30:09;1.60;;;1.50;;
75450;SDS011;64029;48.244;9.188;2023-05-10T07:32:36;1.60;;;1.40;;
75450;SDS011;64029;48.244;9.188;2023-05-10T07:35:04;1.50;;;1.40;;
75450;SDS011;64029;48.244;9.188;2023-05-10T07:37:31;3.73;;;1.50;;
75450;SDS011;64029;48.244;9.188;2023-05-10T07:39:58;3.17;;;1.30;;
75450;SDS011;64029;48.244;9.188;2023-05-10T07:42:25;3.40;;;1.80;;
75450;SDS011;64029;48.244;9.188;2023-05-10T07:44:53;1.80;;;1.70;;
75450;SDS011;64029;48.244;9.188;2023-05-10T07:47:20;2.10;;;1.70;;
75450;SDS011;64029;48.244;9.188;2023-05-10T07:49:47;3.20;;;1.80;;
75450;SDS011;64029;48.244;9.188;2023-05-10T07:52:14;2.53;;;2.33;;
75450;SDS011;64029;48.244;9.188;2023-05-10T07:54:40;3.93;;;2.43;;
75450;SDS011;64029;48.244;9.188;2023-05-10T07:57:07;3.27;;;2.37;;
75450;SDS011;64029;48.244;9.188;2023-05-10T07:59:34;1.67;;;1.50;;
75450;SDS011;64029;48.244;9.188;2023-05-10T08:02:02;3.20;;;1.80;;
75450;SDS011;64029;48.244;9.188;2023-05-10T08:04:29;2.10;;;1.40;;
75450;SDS011;64029;48.244;9.188;2023-05-10T08:06:56;2.60;;;1.57;;
75450;SDS011;64029;48.244;9.188;2023-05-10T08:09:23;1.90;;;1.70;;
75450;SDS011;64029;48.244;9.188;2023-05-10T08:11:50;2.67;;;1.87;;
75450;SDS011;64029;48.244;9.188;2023-05-10T08:14:17;1.53;;;1.40;;
75450;SDS011;64029;48.244;9.188;2023-05-10T08:16:44;2.77;;;1.90;;
75450;SDS011;64029;48.244;9.188;2023-05-10T08:19:13;1.50;;;1.40;;
75450;SDS011;64029;48.244;9.188;2023-05-10T08:21:43;1.63;;;1.20;;
75450;SDS011;64029;48.244;9.188;2023-05-10T08:24:10;1.43;;;1.30;;
75450;SDS011;64029;48.244;9.188;2023-05-10T08:26:37;2.60;;;1.00;;
75450;SDS011;64029;48.244;9.188;2023-05-10T08:29:04;1.20;;;1.00;;
75450;SDS011;64029;48.244;9.188;2023-05-10T08:31:31;3.33;;;1.13;;
75450;SDS011;64029;48.244;9.188;2023-05-10T08:33:58;1.57;;;1.07;;
75450;SDS011;64029;48.244;9.188;2023-05-10T08:36:26;1.10;;;1.00;;
75450;SDS011;64029;48.244;9.188;2023-05-10T08:38:53;1.40;;;1.10;;
75450;SDS011;64029;48.244;9.188;2023-05-10T08:41:21;1.30;;;1.20;;
75450;SDS011;64029;48.244;9.188;2023-05-10T08:43:49;2.10;;;1.13;;
75450;SDS011;64029;48.244;9.188;2023-05-10T08:46:17;0.90;;;0.80;;
75450;SDS011;64029;48.244;9.188;2023-05-10T08:48:45;1.20;;;0.90;;
75450;SDS011;64029;48.244;9.188;2023-05-10T08:51:13;1.40;;;1.27;;
75450;SDS011;64029;48.244;9.188;2023-05-10T08:53:42;1.17;;;1.07;;
75450;SDS011;64029;48.244;9.188;2023-05-10T08:56:10;1.70;;;1.10;;
75450;SDS011;64029;48.244;9.188;2023-05-10T08:58:38;1.37;;;1.10;;
75450;SDS011;64029;48.244;9.188;2023-05-10T09:01:05;1.33;;;0.80;;
75450;SDS011;64029;48.244;9.188;2023-05-10T09:03:32;1.50;;;1.20;;
75450;SDS011;64029;48.244;9.188;2023-05-10T09:05:59;3.43;;;0.87;;
75450;SDS011;64029;48.244;9.188;2023-05-10T09:08:26;1.33;;;0.97;;
75450;SDS011;64029;48.244;9.188;2023-05-10T09:10:54;1.20;;;0.83;;
75450;SDS011;64029;48.244;9.188;2023-05-10T09:13:22;1.60;;;1.20;;
75450;SDS011;64029;48.244;9.188;2023-05-10T09:15:49;2.20;;;1.30;;
75450;SDS011;64029;48.244;9.188;2023-05-10T09:18:17;1.73;;;1.20;;
75450;SDS011;64029;48.244;9.188;2023-05-10T09:20:44;2.17;;;1.30;;
75450;SDS011;64029;48.244;9.188;2023-05-10T09:23:11;1.80;;;1.17;;
75450;SDS011;64029;48.244;9.188;2023-05-10T09:25:38;1.67;;;1.20;;
75450;SDS011;64029;48.244;9.188;2023-05-10T09:28:07;1.40;;;1.10;;
75450;SDS011;64029;48.244;9.188;2023-05-10T09:30:35;1.53;;;1.03;;
75450;SDS011;64029;48.244;9.188;2023-05-10T09:33:02;3.20;;;1.30;;
75450;SDS011;64029;48.244;9.188;2023-05-10T09:35:30;2.80;;;1.20;;
75450;SDS011;64029;48.244;9.188;2023-05-10T09:37:59;2.50;;;1.33;;
75450;SDS011;64029;48.244;9.188;2023-05-10T09:40:27;1.47;;;1.37;;
75450;SDS011;64029;48.244;9.188;2023-05-10T09:42:55;1.57;;;1.30;;
75450;SDS011;64029;48.244;9.188;2023-05-10T09:45:25;1.43;;;1.13;;
75450;SDS011;64029;48.244;9.188;2023-05-10T09:47:53;1.43;;;1.00;;
75450;SDS011;64029;48.244;9.188;2023-05-10T09:50:20;1.30;;;0.90;;
75450;SDS011;64029;48.244;9.188;2023-05-10T09:52:48;1.23;;;1.10;;
75450;SDS011;64029;48.244;9.188;2023-05-10T09:55:16;2.50;;;1.13;;
75450;SDS011;64029;48.244;9.188;2023-05-10T09:57:44;0.90;;;0.80;;
75450;SDS011;64029;48.244;9.188;2023-05-10T10:00:19;1.53;;;1.30;;
75450;SDS011;64029;48.244;9.188;2023-05-10T10:02:53;1.77;;;1.07;;
75450;SDS011;64029;48.244;9.188;2023-05-10T10:05:27;5.67;;;2.70;;
75450;SDS011;64029;48.244;9.188;2023-05-10T10:07:55;1.63;;;1.10;;
75450;SDS011;64029;48.244;9.188;2023-05-10T10:10:23;1.10;;;1.00;;
75450;SDS011;64029;48.244;9.188;2023-05-10T10:12:50;1.73;;;1.10;;
75450;SDS011;64029;48.244;9.188;2023-05-10T10:15:17;1.20;;;1.10;;
75450;SDS011;64029;48.244;9.188;2023-05-10T10:17:44;1.53;;;1.13;;
75450;SDS011;64029;48.244;9.188;2023-05-10T10:20:14;1.07;;;0.80;;
75450;SDS011;64029;48.244;9.188;2023-05-10T10:22:41;1.10;;;0.73;;
75450;SDS011;64029;48.244;9.188;2023-05-10T10:25:09;3.00;;;1.57;;
75450;SDS011;64029;48.244;9.188;2023-05-10T10:27:39;1.17;;;0.90;;
75450;SDS011;64029;48.244;9.188;2023-05-10T10:30:16;0.80;;;0.80;;
75450;SDS011;64029;48.244;9.188;2023-05-10T10:32:58;1.47;;;0.90;;
75450;SDS011;64029;48.244;9.188;2023-05-10T10:35:34;2.93;;;1.60;;
75450;SDS011;64029;48.244;9.188;2023-05-10T10:38:02;2.30;;;1.60;;
75450;SDS011;64029;48.244;9.188;2023-05-10T10:40:30;1.83;;;1.30;;
75450;SDS011;64029;48.244;9.188;2023-05-10T10:42:58;2.07;;;1.37;;
75450;SDS011;64029;48.244;9.188;2023-05-10T10:46:09;2.70;;;1.20;;
75450;SDS011;64029;48.244;9.188;2023-05-10T10:48:37;0.90;;;0.80;;
75450;SDS011;64029;48.244;9.188;2023-05-10T10:51:04;1.97;;;0.97;;
75450;SDS011;64029;48.244;9.188;2023-05-10T10:53:31;1.30;;;1.20;;
75450;SDS011;64029;48.244;9.188;2023-05-10T10:56:05;1.03;;;0.93;;
75450;SDS011;64029;48.244;9.188;2023-05-10T10:58:36;2.23;;;1.10;;
75450;SDS011;64029;48.244;9.188;2023-05-10T11:01:13;6.23;;;1.17;;
75450;SDS011;64029;48.244;9.188;2023-05-10T11:03:54;1.40;;;0.87;;
75450;SDS011;64029;48.244;9.188;2023-05-10T11:06:36;1.20;;;1.10;;
75450;SDS011;64029;48.244;9.188;2023-05-10T11:09:05;1.40;;;1.00;;
75450;SDS011;64029;48.244;9.188;2023-05-10T11:11:33;1.00;;;0.83;;
75450;SDS011;64029;48.244;9.188;2023-05-10T11:14:04;1.53;;;1.00;;
75450;SDS011;64029;48.244;9.188;2023-05-10T11:16:40;2.03;;;1.13;;
75450;SDS011;64029;48.244;9.188;2023-05-10T11:19:09;1.70;;;1.00;;
75450;SDS011;64029;48.244;9.188;2023-05-10T11:21:44;2.33;;;1.07;;
75450;SDS011;64029;48.244;9.188;2023-05-10T11:24:12;1.00;;;0.90;;
75450;SDS011;64029;48.244;9.188;2023-05-10T11:26:40;1.67;;;1.30;;
75450;SDS011;64029;48.244;9.188;2023-05-10T11:29:08;1.87;;;1.00;;
75450;SDS011;64029;48.244;9.188;2023-05-10T11:31:35;2.33;;;1.00;;
75450;SDS011;64029;48.244;9.188;2023-05-10T11:34:08;1.57;;;0.90;;
75450;SDS011;64029;48.244;9.188;2023-05-10T11:36:36;1.60;;;0.83;;
75450;SDS011;64029;48.244;9.188;2023-05-10T11:39:03;1.13;;;1.03;;
75450;SDS011;64029;48.244;9.188;2023-05-10T11:41:30;1.20;;;1.10;;
75450;SDS011;64029;48.244;9.188;2023-05-10T11:43:57;2.30;;;1.10;;
75450;SDS011;64029;48.244;9.188;2023-05-10T11:46:26;1.53;;;1.10;;
75450;SDS011;64029;48.244;9.188;2023-05-10T11:49:00;1.10;;;1.00;;
75450;SDS011;64029;48.244;9.188;2023-05-10T11:51:29;0.90;;;0.80;;
75450;SDS011;64029;48.244;9.188;2023-05-10T11:53:58;1.03;;;0.83;;
75450;SDS011;64029;48.244;9.188;2023-05-10T11:56:25;1.87;;;0.90;;
75450;SDS011;64029;48.244;9.188;2023-05-10T11:58:52;2.40;;;0.80;;
75450;SDS011;64029;48.244;9.188;2023-05-10T12:01:20;1.23;;;0.90;;
75450;SDS011;64029;48.244;9.188;2023-05-10T12:03:49;3.03;;;0.97;;
75450;SDS011;64029;48.244;9.188;2023-05-10T12:06:17;2.17;;;1.10;;
75450;SDS011;64029;48.244;9.188;2023-05-10T12:08:45;1.17;;;0.87;;
75450;SDS011;64029;48.244;9.188;2023-05-10T12:11:13;1.43;;;0.80;;
75450;SDS011;64029;48.244;9.188;2023-05-10T12:13:40;2.10;;;0.97;;
75450;SDS011;64029;48.244;9.188;2023-05-10T12:16:15;1.43;;;0.70;;
75450;SDS011;64029;48.244;9.188;2023-05-10T12:18:43;14.33;;;1.40;;
75450;SDS011;64029;48.244;9.188;2023-05-10T12:21:12;2.43;;;0.90;;
75450;SDS011;64029;48.244;9.188;2023-05-10T12:23:39;2.50;;;1.00;;
75450;SDS011;64029;48.244;9.188;2023-05-10T12:26:06;5.53;;;1.10;;
75450;SDS011;64029;48.244;9.188;2023-05-10T12:28:34;2.60;;;1.07;;
75450;SDS011;64029;48.244;9.188;2023-05-10T12:31:02;1.83;;;1.07;;
75450;SDS011;64029;48.244;9.188;2023-05-10T12:33:35;1.70;;;0.90;;
75450;SDS011;64029;48.244;9.188;2023-05-10T12:36:02;4.70;;;1.53;;
75450;SDS011;64029;48.244;9.188;2023-05-10T12:38:32;1.27;;;1.00;;
75450;SDS011;64029;48.244;9.188;2023-05-10T12:41:00;2.87;;;1.37;;
75450;SDS011;64029;48.244;9.188;2023-05-10T12:43:28;1.43;;;1.10;;
75450;SDS011;64029;48.244;9.188;2023-05-10T12:45:55;3.57;;;1.20;;
75450;SDS011;64029;48.244;9.188;2023-05-10T12:48:22;2.27;;;1.20;;
75450;SDS011;64029;48.244;9.188;2023-05-10T12:50:50;2.47;;;1.20;;
75450;SDS011;64029;48.244;9.188;2023-05-10T12:53:16;2.83;;;1.37;;
75450;SDS011;64029;48.244;9.188;2023-05-10T12:55:45;0.87;;;0.80;;
75450;SDS011;64029;48.244;9.188;2023-05-10T12:58:11;4.33;;;1.37;;
75450;SDS011;64029;48.244;9.188;2023-05-10T13:00:38;2.23;;;1.50;;
75450;SDS011;64029;48.244;9.188;2023-05-10T13:03:05;3.10;;;1.27;;
75450;SDS011;64029;48.244;9.188;2023-05-10T13:05:32;2.13;;;1.20;;
75450;SDS011;64029;48.244;9.188;2023-05-10T13:07:59;1.70;;;1.40;;
75450;SDS011;64029;48.244;9.188;2023-05-10T13:10:26;6.03;;;1.53;;
75450;SDS011;64029;48.244;9.188;2023-05-10T13:12:55;4.30;;;1.10;;
75450;SDS011;64029;48.244;9.188;2023-05-10T13:15:22;2.63;;;1.07;;
75450;SDS011;64029;48.244;9.188;2023-05-10T13:17:49;4.27;;;1.27;;
75450;SDS011;64029;48.244;9.188;2023-05-10T13:20:16;2.23;;;1.40;;
75450;SDS011;64029;48.244;9.188;2023-05-10T13:22:43;2.40;;;1.50;;
75450;SDS011;64029;48.244;9.188;2023-05-10T13:25:10;5.67;;;1.73;;
75450;SDS011;64029;48.244;9.188;2023-05-10T13:27:37;2.47;;;1.60;;
75450;SDS011;64029;48.244;9.188;2023-05-10T13:30:06;2.27;;;1.20;;
75450;SDS011;64029;48.244;9.188;2023-05-10T13:32:34;1.83;;;1.20;;
75450;SDS011;64029;48.244;9.188;2023-05-10T13:35:01;1.43;;;1.33;;
75450;SDS011;64029;48.244;9.188;2023-05-10T13:37:29;1.50;;;1.40;;
75450;SDS011;64029;48.244;9.188;2023-05-10T13:39:56;2.30;;;1.20;;
75450;SDS011;64029;48.244;9.188;2023-05-10T13:42:23;3.10;;;1.30;;
75450;SDS011;64029;48.244;9.188;2023-05-10T13:44:50;2.03;;;1.10;;
75450;SDS011;64029;48.244;9.188;2023-05-10T13:47:18;2.77;;;1.23;;
75450;SDS011;64029;48.244;9.188;2023-05-10T13:49:46;1.70;;;1.10;;
75450;SDS011;64029;48.244;9.188;2023-05-10T13:52:13;3.80;;;1.37;;
75450;SDS011;64029;48.244;9.188;2023-05-10T13:54:40;1.53;;;1.10;;
75450;SDS011;64029;48.244;9.188;2023-05-10T13:57:07;1.50;;;1.40;;
75450;SDS011;64029;48.244;9.188;2023-05-10T13:59:34;3.17;;;1.27;;
75450;SDS011;64029;48.244;9.188;2023-05-10T14:02:01;1.70;;;1.23;;
75450;SDS011;64029;48.244;9.188;2023-05-10T14:04:30;1.30;;;1.00;;
75450;SDS011;64029;48.244;9.188;2023-05-10T14:06:57;2.93;;;1.50;;
75450;SDS011;64029;48.244;9.188;2023-05-10T14:09:24;4.00;;;1.23;;
75450;SDS011;64029;48.244;9.188;2023-05-10T14:11:50;2.73;;;1.50;;
75450;SDS011;64029;48.244;9.188;2023-05-10T14:14:17;3.40;;;1.30;;
75450;SDS011;64029;48.244;9.188;2023-05-10T14:16:45;2.10;;;1.23;;
75450;SDS011;64029;48.244;9.188;2023-05-10T14:19:12;1.30;;;1.17;;
75450;SDS011;64029;48.244;9.188;2023-05-10T14:21:40;1.80;;;1.40;;
75450;SDS011;64029;48.244;9.188;2023-05-10T14:24:08;4.83;;;1.17;;
75450;SDS011;64029;48.244;9.188;2023-05-10T14:26:35;1.63;;;1.13;;
75450;SDS011;64029;48.244;9.188;2023-05-10T14:29:02;1.67;;;1.17;;
75450;SDS011;64029;48.244;9.188;2023-05-10T14:31:29;1.93;;;1.23;;
75450;SDS011;64029;48.244;9.188;2023-05-10T14:33:56;4.33;;;1.30;;
75450;SDS011;64029;48.244;9.188;2023-05-10T14:36:24;1.20;;;1.10;;
75450;SDS011;64029;48.244;9.188;2023-05-10T14:38:52;3.87;;;1.70;;
75450;SDS011;64029;48.244;9.188;2023-05-10T14:41:19;1.60;;;1.50;;
75450;SDS011;64029;48.244;9.188;2023-05-10T14:43:46;2.80;;;1.47;;
75450;SDS011;64029;48.244;9.188;2023-05-10T14:46:13;5.10;;;1.13;;
75450;SDS011;64029;48.244;9.188;2023-05-10T14:48:40;2.93;;;1.60;;
75450;SDS011;64029;48.244;9.188;2023-05-10T14:51:07;1.47;;;1.10;;
75450;SDS011;64029;48.244;9.188;2023-05-10T14:53:34;1.30;;;1.20;;
75450;SDS011;64029;48.244;9.188;2023-05-10T14:56:03;2.20;;;1.23;;
75450;SDS011;64029;48.244;9.188;2023-05-10T14:58:32;2.70;;;1.30;;